Time;durP1;ratioP1;P1;durP2;ratioP2;P2;SDS_P1;SDS_P2;PMS_P1;PMS_P2;Temp;Humidity;BMP_temperature;BMP_pressure;BME280_temperature;BME280_humidity;BME280_pressure;Samples;Min_cycle;Max_cycle;Signal;HPM_P1;HPM_P2
2022/05/30 00:01:08;;;;;;;22.53;9.00;;;;;;;38.65;41.94;101036.97;5052906;28;20828;-74
2022/05/30 00:03:35;;;;;;;20.67;9.47;;;;;;;38.89;41.24;101039.41;5054241;28;20411;-76
2022/05/30 00:06:01;;;;;;;30.23;9.70;;;;;;;38.99;40.96;101043.81;5053109;28;20851;-75
2022/05/30 00:08:27;;;;;;;37.23;10.40;;;;;;;38.93;41.27;101026.84;5052748;28;20852;-76
2022/05/30 00:10:53;;;;;;;28.23;8.80;;;;;;;39.07;40.86;101031.41;5052696;28;20450;-76
2022/05/30 00:13:19;;;;;;;32.33;10.40;;;;;;;38.89;40.62;101036.72;5069433;28;20822;-75
2022/05/30 00:15:45;;;;;;;18.53;8.50;;;;;;;38.98;40.90;101025.94;5052899;28;20780;-74
2022/05/30 00:18:12;;;;;;;14.53;8.10;;;;;;;38.89;41.31;101025.84;5069243;28;20495;-74
2022/05/30 00:20:43;;;;;;;18.33;9.90;;;;;;;38.93;41.56;101026.06;5053857;28;20820;-76
2022/05/30 00:23:09;;;;;;;20.70;10.03;;;;;;;38.77;41.72;101024.81;5069169;28;20821;-75
2022/05/30 00:25:39;;;;;;;19.73;9.77;;;;;;;38.86;41.88;101028.41;5052547;28;21016;-74
2022/05/30 00:28:05;;;;;;;19.27;9.20;;;;;;;39.00;41.66;101022.91;5019488;28;20415;-74
2022/05/30 00:30:31;;;;;;;22.90;8.67;;;;;;;38.99;41.09;101021.31;5053623;28;20442;-76
2022/05/30 00:32:57;;;;;;;20.57;9.47;;;;;;;38.80;41.12;101018.78;5052571;28;20865;-75
2022/05/30 00:35:24;;;;;;;18.53;9.27;;;;;;;38.48;41.14;101012.44;5068848;28;20442;-75
2022/05/30 00:37:50;;;;;;;18.03;8.00;;;;;;;38.56;41.19;101011.72;5052253;28;20476;-75
2022/05/30 00:40:16;;;;;;;14.03;7.17;;;;;;;38.68;40.96;101011.97;5067748;28;20419;-76
2022/05/30 00:42:42;;;;;;;15.77;7.90;;;;;;;38.71;41.31;101010.53;5053384;28;20438;-76
2022/05/30 00:45:09;;;;;;;14.37;7.80;;;;;;;38.80;40.94;101005.22;5053505;28;20395;-76
2022/05/30 00:47:36;;;;;;;23.43;9.43;;;;;;;38.57;41.12;101001.69;5052018;28;20462;-75
2022/05/30 00:50:03;;;;;;;12.97;7.53;;;;;;;38.57;41.09;101007.91;5068659;28;20462;-74
2022/05/30 00:52:34;;;;;;;16.67;7.50;;;;;;;38.58;41.10;101017.63;5068609;28;20410;-76
2022/05/30 00:55:15;;;;;;;20.27;11.47;;;;;;;38.52;41.68;101013.44;5067808;28;20446;-76
2022/05/30 00:57:43;;;;;;;17.93;9.37;;;;;;;38.65;41.21;101012.56;5068460;28;20883;-76
2022/05/30 01:00:17;;;;;;;16.37;7.10;;;;;;;38.42;41.54;101008.25;5053109;28;20493;-76
2022/05/30 01:02:44;;;;;;;18.83;8.27;;;;;;;38.43;41.69;101001.75;5052884;28;20441;-76
2022/05/30 01:07:59;;;;;;;14.43;7.73;;;;;;;38.57;41.85;101005.19;5052959;28;20398;-74
2022/05/30 01:10:26;;;;;;;16.37;8.80;;;;;;;38.69;41.60;101000.03;5068069;28;20470;-74
2022/05/30 01:12:55;;;;;;;19.27;7.73;;;;;;;38.71;41.30;101002.41;5052819;28;20900;-74
2022/05/30 01:15:27;;;;;;;16.03;7.67;;;;;;;38.77;40.69;101003.94;5051569;28;20423;-76
2022/05/30 01:18:21;;;;;;;15.27;8.47;;;;;;;38.66;41.46;101005.25;5067435;28;20443;-74
2022/05/30 01:20:53;;;;;;;15.23;9.80;;;;;;;38.75;41.60;100999.94;5068074;28;20449;-73
2022/05/30 01:23:28;;;;;;;22.07;8.63;;;;;;;38.78;41.79;101002.00;5067950;28;20423;-75
2022/05/30 01:26:13;;;;;;;18.20;8.30;;;;;;;38.71;40.68;100997.00;5067867;28;20532;-75
2022/05/30 01:28:39;;;;;;;19.07;7.20;;;;;;;38.60;40.27;100988.28;5051352;28;20419;-75
2022/05/30 01:31:06;;;;;;;16.10;8.60;;;;;;;38.74;40.65;100996.41;5067902;28;20465;-75
2022/05/30 01:33:32;;;;;;;14.83;7.43;;;;;;;38.63;41.55;100986.91;5067811;28;20457;-74
2022/05/30 01:35:58;;;;;;;19.03;9.80;;;;;;;38.55;41.64;100993.03;5067912;28;20415;-74
2022/05/30 01:38:24;;;;;;;17.40;9.17;;;;;;;38.65;41.54;100990.09;5067783;28;20422;-74
2022/05/30 01:40:51;;;;;;;22.77;10.20;;;;;;;38.72;41.07;100989.69;5067673;28;20415;-74
2022/05/30 01:43:17;;;;;;;20.03;9.50;;;;;;;38.64;41.79;100983.88;5052449;28;20436;-75
2022/05/30 01:45:43;;;;;;;24.07;11.03;;;;;;;38.68;41.47;100976.72;5067620;28;20456;-74
2022/05/30 01:48:09;;;;;;;11.27;7.73;;;;;;;38.41;40.81;100979.53;5051269;28;20419;-74
2022/05/30 01:50:36;;;;;;;17.90;8.33;;;;;;;38.34;40.96;100974.56;5051938;28;20536;-74
2022/05/30 01:53:02;;;;;;;17.93;8.27;;;;;;;38.44;41.59;100968.09;5067700;28;20422;-75
2022/05/30 01:55:28;;;;;;;16.30;8.70;;;;;;;38.48;41.81;100968.28;5067387;28;20430;-73
2022/05/30 01:57:54;;;;;;;29.47;9.93;;;;;;;38.58;41.67;100966.13;5067438;28;20421;-75
2022/05/30 02:00:20;;;;;;;28.63;11.53;;;;;;;38.61;41.76;100973.66;5050514;28;20828;-75
2022/05/30 02:02:47;;;;;;;21.40;9.30;;;;;;;38.51;41.68;100979.31;5050963;28;20532;-76
2022/05/30 02:05:13;;;;;;;25.37;11.30;;;;;;;38.53;41.57;100982.50;5067564;28;20419;-74
2022/05/30 02:07:39;;;;;;;16.13;7.77;;;;;;;38.60;41.77;100972.03;5050547;28;20549;-74
2022/05/30 02:10:06;;;;;;;16.20;7.93;;;;;;;38.66;40.88;100976.22;5050587;28;20992;-75
2022/05/30 02:12:32;;;;;;;20.87;10.97;;;;;;;38.72;40.72;100978.84;5067376;28;20505;-75
2022/05/30 02:14:58;;;;;;;26.07;9.30;;;;;;;38.60;41.18;100982.88;5050305;28;20459;-75
2022/05/30 02:17:25;;;;;;;18.00;8.13;;;;;;;38.61;41.12;100984.50;5067369;28;20414;-76
2022/05/30 02:19:51;;;;;;;17.17;10.30;;;;;;;38.70;40.69;100971.00;5049748;28;20557;-75
2022/05/30 02:22:19;;;;;;;21.50;8.60;;;;;;;38.58;40.54;100963.41;5049852;28;20950;-73
2022/05/30 02:24:48;;;;;;;27.60;9.67;;;;;;;38.55;40.83;100958.63;5067127;28;20531;-73
2022/05/30 02:27:16;;;;;;;19.53;8.90;;;;;;;38.60;41.14;100965.81;5069179;28;20971;-75
2022/05/30 02:29:43;;;;;;;17.10;9.30;;;;;;;38.62;40.90;100975.25;5053715;28;20429;-75
2022/05/30 02:32:10;;;;;;;25.90;11.93;;;;;;;38.66;41.21;100964.56;5036986;28;20445;-75
2022/05/30 02:37:21;;;;;;;22.53;9.13;;;;;;;38.67;41.28;100953.44;5071938;28;20507;-75
2022/05/30 02:39:47;;;;;;;17.47;9.63;;;;;;;38.54;41.30;100956.19;5054059;28;20445;-76
2022/05/30 02:42:13;;;;;;;21.53;9.03;;;;;;;38.47;41.78;100959.34;5070820;28;20471;-74
2022/05/30 02:44:39;;;;;;;21.60;8.77;;;;;;;38.43;42.35;100955.66;5070476;28;20418;-75
2022/05/30 02:47:06;;;;;;;29.37;10.10;;;;;;;38.56;42.23;100949.38;5070208;28;20839;-75
2022/05/30 02:49:32;;;;;;;17.17;9.80;;;;;;;38.59;41.78;100954.16;5053547;28;20441;-76
2022/05/30 02:51:59;;;;;;;25.97;9.33;;;;;;;38.69;41.73;100942.28;5053684;28;20434;-75
2022/05/30 02:54:26;;;;;;;18.00;9.83;;;;;;;38.63;42.10;100944.31;5070133;28;20425;-75
2022/05/30 02:56:54;;;;;;;25.87;9.63;;;;;;;38.57;42.40;100944.75;5070103;28;20448;-75
2022/05/30 02:59:20;;;;;;;29.40;11.17;;;;;;;38.70;42.18;100947.38;5053562;28;20985;-76
2022/05/30 03:01:47;;;;;;;18.20;10.10;;;;;;;38.67;41.70;100960.75;5053250;28;20438;-76
2022/05/30 03:04:14;;;;;;;16.40;9.07;;;;;;;38.65;41.62;100952.94;5073296;28;20521;-76
2022/05/30 03:06:40;;;;;;;16.60;9.00;;;;;;;38.69;41.91;100959.34;5074036;28;20497;-75
2022/05/30 03:09:07;;;;;;;19.80;9.00;;;;;;;38.73;41.78;100956.84;5075194;28;20976;-76
2022/05/30 03:11:33;;;;;;;21.90;9.93;;;;;;;38.76;41.20;100975.22;5075138;28;20840;-75
2022/05/30 03:14:00;;;;;;;20.20;8.33;;;;;;;38.73;41.00;100962.25;5074050;28;21143;-74
2022/05/30 03:16:26;;;;;;;27.30;7.83;;;;;;;38.71;40.54;100956.31;5056965;28;20422;-74
2022/05/30 03:18:53;;;;;;;25.10;9.93;;;;;;;38.71;40.97;100961.75;5057113;28;20559;-75
2022/05/30 03:21:19;;;;;;;17.73;9.20;;;;;;;38.64;41.17;100969.53;5074859;28;20408;-75
2022/05/30 03:23:45;;;;;;;19.50;12.27;;;;;;;38.70;41.27;100960.16;5073628;28;20430;-75
2022/05/30 03:26:12;;;;;;;25.53;8.67;;;;;;;38.75;41.88;100968.19;5053365;28;20986;-76
2022/05/30 03:28:38;;;;;;;26.97;13.43;;;;;;;38.79;41.96;100968.34;5054975;28;20406;-75
2022/05/30 03:31:09;;;;;;;24.30;10.50;;;;;;;38.75;41.98;100973.63;5070129;28;20836;-76
2022/05/30 03:33:36;;;;;;;21.37;9.93;;;;;;;38.76;42.15;100972.50;5053409;28;20426;-75
2022/05/30 03:36:07;;;;;;;34.57;9.50;;;;;;;38.63;42.06;100970.63;5053402;28;20442;-74
2022/05/30 03:38:34;;;;;;;21.47;9.27;;;;;;;38.58;42.64;100960.72;5070022;28;20425;-75
2022/05/30 03:41:00;;;;;;;23.10;10.10;;;;;;;38.47;42.50;100967.47;5053380;28;20931;-75
2022/05/30 03:43:26;;;;;;;24.37;10.63;;;;;;;38.38;43.00;100974.75;5053535;28;20886;-76
2022/05/30 03:45:52;;;;;;;26.87;9.23;;;;;;;38.30;43.18;100989.00;5053271;28;20414;-76
2022/05/30 03:48:21;;;;;;;22.33;9.60;;;;;;;38.28;43.48;100992.03;5054649;28;20434;-74
2022/05/30 03:50:48;;;;;;;17.33;9.83;;;;;;;38.28;43.73;100997.44;5054324;28;20920;-76
2022/05/30 03:53:15;;;;;;;18.93;10.77;;;;;;;38.37;43.91;101000.25;5053142;28;20468;-76
2022/05/30 03:55:44;;;;;;;23.03;10.83;;;;;;;38.28;43.90;101007.50;5054135;28;20451;-74
2022/05/30 03:58:12;;;;;;;25.90;11.30;;;;;;;38.13;44.77;101011.31;5069721;28;20928;-75
2022/05/30 04:00:41;;;;;;;20.80;10.03;;;;;;;38.17;44.46;101009.59;5069616;28;20940;-74
2022/05/30 04:03:08;;;;;;;14.00;7.87;;;;;;;37.95;44.69;101004.13;5069478;28;20528;-75
2022/05/30 04:05:34;;;;;;;21.53;9.87;;;;;;;37.98;44.47;101000.78;5052832;28;20423;-76
2022/05/30 04:08:00;;;;;;;17.63;10.83;;;;;;;38.15;44.37;101009.88;5069368;28;20457;-75
2022/05/30 04:10:26;;;;;;;19.27;13.13;;;;;;;38.26;44.12;101020.53;5052713;28;20451;-76
2022/05/30 04:13:08;;;;;;;18.60;11.43;;;;;;;38.46;44.10;101017.38;5054116;28;20407;-75
2022/05/30 04:15:35;;;;;;;18.17;11.23;;;;;;;38.65;43.49;101026.13;5052661;28;20800;-75
2022/05/30 04:18:01;;;;;;;26.70;12.67;;;;;;;38.53;43.68;101028.59;5036125;28;20422;-75
2022/05/30 04:20:28;;;;;;;23.23;15.00;;;;;;;37.91;43.79;101031.78;5069195;28;20441;-74
2022/05/30 04:22:54;;;;;;;14.73;9.87;;;;;;;37.43;45.13;101035.94;5069314;28;20512;-74
2022/05/30 04:25:20;;;;;;;26.03;12.47;;;;;;;36.85;46.43;101037.13;5053892;28;20917;-74
2022/05/30 04:27:46;;;;;;;28.83;10.33;;;;;;;37.02;46.74;101032.03;5072513;28;20410;-75
2022/05/30 04:30:12;;;;;;;14.40;8.93;;;;;;;36.98;46.29;101030.19;5055733;28;20452;-75
2022/05/30 04:32:39;;;;;;;22.50;11.60;;;;;;;37.02;46.33;101029.31;5073606;28;20406;-75
2022/05/30 04:35:06;;;;;;;18.50;9.73;;;;;;;37.25;45.66;101032.97;5072352;28;20979;-75
2022/05/30 04:37:32;;;;;;;23.20;12.80;;;;;;;37.10;45.72;101035.94;5072235;28;20414;-74
2022/05/30 04:39:59;;;;;;;15.73;11.90;;;;;;;37.19;45.61;101030.66;5072243;28;21034;-75
2022/05/30 04:42:25;;;;;;;19.60;11.73;;;;;;;37.16;45.69;101036.66;5055723;28;20425;-74
2022/05/30 04:44:51;;;;;;;12.43;9.20;;;;;;;37.15;44.88;101037.78;5073424;28;20816;-76
2022/05/30 04:47:17;;;;;;;22.03;10.33;;;;;;;36.95;45.38;101034.28;5055611;28;20456;-74
2022/05/30 04:49:43;;;;;;;17.60;11.70;;;;;;;36.85;45.23;101047.94;5071916;28;20418;-73
2022/05/30 04:52:10;;;;;;;17.90;9.20;;;;;;;36.94;45.34;101056.22;5071852;28;20465;-75
2022/05/30 04:54:36;;;;;;;15.23;11.30;;;;;;;36.83;45.66;101037.44;5073234;28;20481;-75
2022/05/30 04:57:02;;;;;;;19.53;9.50;;;;;;;36.49;46.70;101037.66;5072990;28;20871;-75
2022/05/30 04:59:28;;;;;;;16.10;9.30;;;;;;;36.78;46.03;101042.91;5055143;28;20563;-75
2022/05/30 05:01:55;;;;;;;22.17;9.40;;;;;;;36.76;45.76;101039.69;5054991;28;20448;-74
2022/05/30 05:04:21;;;;;;;20.10;11.03;;;;;;;36.89;45.20;101037.38;5054911;28;20418;-74
2022/05/30 05:06:49;;;;;;;16.93;10.37;;;;;;;36.84;44.81;101043.66;5054893;28;20808;-74
2022/05/30 05:09:18;;;;;;;16.00;9.00;;;;;;;36.79;44.41;101044.53;5072687;28;20408;-74
2022/05/30 05:11:46;;;;;;;18.40;10.63;;;;;;;36.77;44.78;101040.50;5071509;28;20465;-74
2022/05/30 05:14:14;;;;;;;17.43;12.00;;;;;;;36.60;45.28;101035.63;5071413;28;20916;-74
2022/05/30 05:16:40;;;;;;;17.10;9.00;;;;;;;36.57;44.96;101041.59;5071503;28;20422;-73
2022/05/30 05:19:07;;;;;;;12.43;6.70;;;;;;;36.71;44.81;101041.66;5073042;28;20911;-75
2022/05/30 05:21:36;;;;;;;18.57;8.47;;;;;;;36.68;44.89;101042.25;5070329;28;20413;-75
2022/05/30 05:24:05;;;;;;;17.03;8.77;;;;;;;36.66;45.14;101044.47;5074741;28;20474;-75
2022/05/30 05:26:31;;;;;;;14.97;8.00;;;;;;;36.53;44.73;101059.50;5070604;28;20694;-75
2022/05/30 05:28:58;;;;;;;16.37;9.20;;;;;;;36.72;45.01;101051.41;5070403;28;20437;-73
2022/05/30 05:31:26;;;;;;;12.10;7.90;;;;;;;36.63;44.75;101042.34;5071073;28;20465;-73
2022/05/30 05:33:54;;;;;;;10.90;7.20;;;;;;;36.76;44.79;101045.09;5071067;28;20418;-73
2022/05/30 05:36:21;;;;;;;19.80;9.73;;;;;;;36.84;44.52;101043.66;5071175;28;20413;-73
2022/05/30 05:38:48;;;;;;;14.10;9.20;;;;;;;36.98;44.34;101052.63;5070999;28;20425;-74
2022/05/30 05:41:14;;;;;;;19.37;10.17;;;;;;;36.94;44.04;101057.00;5072395;28;20410;-72
2022/05/30 05:43:40;;;;;;;12.27;7.60;;;;;;;37.03;43.81;101071.50;5070981;28;20993;-71
2022/05/30 05:46:15;;;;;;;19.97;10.30;;;;;;;36.97;43.66;101067.25;5066632;28;20432;-70
2022/05/30 05:48:42;;;;;;;11.63;8.40;;;;;;;37.04;43.78;101067.69;5069388;28;20428;-70
2022/05/30 05:51:08;;;;;;;13.27;8.67;;;;;;;36.99;43.56;101077.78;5064484;28;20462;-72
2022/05/30 05:53:35;;;;;;;15.60;9.73;;;;;;;37.07;44.21;101077.91;5056134;28;20453;-72
2022/05/30 05:56:12;;;;;;;21.80;11.33;;;;;;;37.13;43.98;101078.63;5051049;28;20418;-73
2022/05/30 05:58:38;;;;;;;17.53;11.90;;;;;;;37.02;44.38;101083.41;5072959;28;20488;-73
2022/05/30 06:01:10;;;;;;;19.00;13.77;;;;;;;37.16;44.24;101093.47;5087497;28;20441;-71
2022/05/30 06:03:36;;;;;;;20.50;15.17;;;;;;;37.08;43.86;101101.16;5070075;28;20453;-70
2022/05/30 06:06:05;;;;;;;23.73;14.97;;;;;;;37.09;44.15;101091.94;5061295;28;20437;-69
2022/05/30 06:08:32;;;;;;;24.77;16.83;;;;;;;36.95;44.77;101098.38;5050642;28;20418;-71
2022/05/30 06:11:05;;;;;;;19.77;13.83;;;;;;;36.71;44.77;101098.41;5056280;28;20507;-71
2022/05/30 06:13:32;;;;;;;19.00;12.97;;;;;;;36.81;45.12;101090.19;5067965;28;20429;-71
2022/05/30 06:15:59;;;;;;;21.07;12.53;;;;;;;36.92;44.81;101093.56;5070298;28;21026;-71
2022/05/30 06:18:25;;;;;;;19.43;13.07;;;;;;;36.99;45.11;101107.53;5069996;28;20493;-71
2022/05/30 06:20:58;;;;;;;18.00;10.30;;;;;;;36.96;45.12;101108.13;5086345;28;20966;-73
2022/05/30 06:23:24;;;;;;;19.47;11.83;;;;;;;37.03;44.72;101109.34;5086752;28;20970;-71
2022/05/30 06:25:50;;;;;;;13.70;9.70;;;;;;;36.99;45.00;101108.31;5070280;28;20465;-71
2022/05/30 06:28:16;;;;;;;21.63;11.50;;;;;;;37.18;44.63;101110.19;5070586;28;20476;-76
2022/05/30 06:30:42;;;;;;;15.40;10.20;;;;;;;37.26;44.32;101114.94;5087475;28;20450;-70
2022/05/30 06:33:08;;;;;;;15.57;12.10;;;;;;;37.15;44.75;101121.63;5069567;28;20414;-69
2022/05/30 06:35:34;;;;;;;15.97;10.30;;;;;;;37.21;44.22;101117.75;5087013;28;20948;-73
2022/05/30 06:38:00;;;;;;;18.80;13.17;;;;;;;37.38;44.19;101120.72;5071672;28;20433;-72
2022/05/30 06:40:26;;;;;;;20.33;13.27;;;;;;;37.41;43.87;101127.44;5073507;28;20463;-72
2022/05/30 06:42:52;;;;;;;20.77;13.20;;;;;;;37.22;44.65;101132.88;5073110;28;21147;-73
2022/05/30 06:45:18;;;;;;;27.43;16.10;;;;;;;37.42;44.53;101131.75;5073602;28;20467;-72
2022/05/30 06:47:45;;;;;;;33.87;19.63;;;;;;;37.43;44.34;101134.16;5089653;28;20413;-72
2022/05/30 06:50:11;;;;;;;26.53;19.57;;;;;;;37.42;44.30;101137.16;5067783;28;20457;-72
2022/05/30 06:52:38;;;;;;;42.87;20.17;;;;;;;37.59;44.04;101137.44;5089865;28;20545;-71
2022/05/30 06:55:04;;;;;;;27.40;20.70;;;;;;;37.56;44.69;101146.13;5085023;22;20418;-73
2022/05/30 07:00:16;;;;;;;34.20;17.53;;;;;;;37.77;43.76;101143.88;5053168;28;20394;-72
2022/05/30 07:02:42;;;;;;;20.60;13.87;;;;;;;37.88;43.50;101151.56;5063811;28;20457;-72
2022/05/30 07:05:09;;;;;;;18.60;12.60;;;;;;;37.80;43.83;101148.69;5079094;28;20461;-72
2022/05/30 07:07:35;;;;;;;25.63;12.23;;;;;;;37.63;44.18;101149.28;5064183;28;20819;-72
2022/05/30 07:10:02;;;;;;;13.13;9.90;;;;;;;37.28;44.66;101161.44;5076401;28;20446;-72
2022/05/30 07:12:28;;;;;;;23.43;12.40;;;;;;;37.43;44.59;101166.63;5053484;28;20435;-71
2022/05/30 07:14:54;;;;;;;19.47;11.27;;;;;;;37.69;44.60;101160.78;5053548;28;20481;-72
2022/05/30 07:17:20;;;;;;;27.17;13.33;;;;;;;37.79;44.40;101163.31;5069588;28;20438;-72
2022/05/30 07:19:46;;;;;;;15.77;11.00;;;;;;;37.95;44.04;101172.81;5053090;28;20418;-71
2022/05/30 07:22:12;;;;;;;15.20;9.20;;;;;;;38.00;43.73;101163.78;5053200;28;20418;-72
2022/05/30 07:24:38;;;;;;;25.20;11.60;;;;;;;38.02;44.02;101167.81;5054296;28;20529;-73
2022/05/30 07:27:05;;;;;;;18.90;10.40;;;;;;;38.12;43.61;101174.94;5053406;28;20433;-72
2022/05/30 07:29:31;;;;;;;28.50;12.80;;;;;;;38.14;43.15;101180.88;5069877;28;20537;-72
2022/05/30 07:32:02;;;;;;;22.83;10.03;;;;;;;38.24;43.27;101177.94;5069925;28;21005;-72
2022/05/30 07:34:28;;;;;;;17.90;12.90;;;;;;;38.25;43.63;101170.66;5050512;28;20533;-72
2022/05/30 07:36:54;;;;;;;21.70;10.00;;;;;;;38.17;43.52;101175.63;5052982;28;20798;-71
2022/05/30 07:39:20;;;;;;;18.60;10.10;;;;;;;38.00;43.81;101175.44;5053202;28;20433;-72
2022/05/30 07:41:46;;;;;;;23.27;11.00;;;;;;;38.17;43.36;101181.06;5052852;28;20419;-73
2022/05/30 07:44:12;;;;;;;21.17;12.30;;;;;;;38.15;43.02;101177.06;5069459;28;20422;-71
2022/05/30 07:46:45;;;;;;;21.03;9.80;;;;;;;37.88;43.26;101184.06;5052982;28;20513;-71
2022/05/30 07:49:12;;;;;;;13.83;8.50;;;;;;;37.95;42.88;101182.84;5053983;28;20395;-72
2022/05/30 07:51:39;;;;;;;22.93;10.27;;;;;;;38.19;42.75;101186.19;5053952;28;20451;-71
2022/05/30 07:54:06;;;;;;;17.37;9.73;;;;;;;38.47;42.35;101181.59;5053782;28;20443;-71
2022/05/30 07:56:32;;;;;;;13.73;9.20;;;;;;;38.62;42.02;101199.47;5060642;28;20459;-72
2022/05/30 07:58:58;;;;;;;30.40;14.37;;;;;;;38.54;42.05;101187.41;5069501;28;20517;-73
2022/05/30 08:01:25;;;;;;;18.23;8.57;;;;;;;38.60;42.04;101193.53;5052807;28;20466;-73
2022/05/30 08:03:52;;;;;;;17.37;9.73;;;;;;;38.65;41.93;101191.50;5052301;28;20438;-73
2022/05/30 08:06:21;;;;;;;18.73;11.07;;;;;;;38.48;42.18;101196.75;5069527;28;20426;-73
2022/05/30 08:08:47;;;;;;;15.20;9.27;;;;;;;38.20;42.95;101195.13;5054224;28;20449;-72
2022/05/30 08:11:15;;;;;;;24.23;9.47;;;;;;;38.17;43.23;101205.44;5069354;28;20464;-71
2022/05/30 08:13:43;;;;;;;26.27;10.30;;;;;;;38.42;42.82;101197.94;5054148;28;20894;-73
2022/05/30 08:16:09;;;;;;;22.40;10.87;;;;;;;38.31;43.23;101191.16;5052504;28;20468;-71
2022/05/30 08:18:35;;;;;;;19.17;10.57;;;;;;;38.39;43.25;101198.56;5053722;28;20982;-73
2022/05/30 08:21:02;;;;;;;14.83;10.00;;;;;;;38.60;42.89;101197.03;5052061;28;20477;-71
2022/05/30 08:23:28;;;;;;;20.83;8.73;;;;;;;38.58;42.43;101198.44;5052337;28;20442;-73
2022/05/30 08:25:55;;;;;;;31.30;9.60;;;;;;;38.64;42.57;101206.19;5052542;28;20443;-73
2022/05/30 08:28:24;;;;;;;17.13;9.00;;;;;;;38.66;42.83;101203.97;5052483;28;20411;-73
2022/05/30 08:30:51;;;;;;;18.40;10.63;;;;;;;38.71;42.79;101197.63;5052257;28;20466;-73
2022/05/30 08:33:19;;;;;;;19.63;9.10;;;;;;;38.62;42.21;101197.56;5052324;28;20454;-72
2022/05/30 08:35:47;;;;;;;24.57;10.03;;;;;;;38.59;42.57;101198.16;5052224;28;20423;-73
2022/05/30 08:38:14;;;;;;;21.03;7.90;;;;;;;38.63;42.65;101198.34;5052382;28;20433;-72
2022/05/30 08:43:34;;;;;;;16.80;9.60;;;;;;;38.54;42.95;101200.94;5052624;28;20386;-74
2022/05/30 08:46:11;;;;;;;18.23;8.97;;;;;;;38.05;44.12;101207.03;5059920;28;20435;-72
2022/05/30 08:48:55;;;;;;;19.47;10.00;;;;;;;37.59;45.51;101208.59;5051274;28;20429;-73
2022/05/30 08:51:39;;;;;;;20.77;8.57;;;;;;;38.15;44.36;101215.78;5051652;28;20438;-72
2022/05/30 08:54:25;;;;;;;15.20;7.27;;;;;;;38.01;43.72;101216.88;5051924;28;20449;-71
2022/05/30 08:56:55;;;;;;;13.20;7.63;;;;;;;37.79;43.83;101229.09;5051115;28;20848;-74
2022/05/30 08:59:53;;;;;;;27.77;9.30;;;;;;;37.93;43.06;101229.16;5060899;28;20451;-74
2022/05/30 09:02:28;;;;;;;18.10;9.40;;;;;;;38.37;42.54;101222.47;5062116;28;20448;-73
2022/05/30 09:05:13;;;;;;;10.63;7.93;;;;;;;38.40;42.76;101213.72;5061371;28;20418;-71
2022/05/30 09:07:46;;;;;;;18.23;9.60;;;;;;;38.51;42.16;101214.31;5056864;28;20932;-71
2022/05/30 09:10:50;;;;;;;15.20;7.90;;;;;;;38.47;42.80;101214.13;5075832;28;20504;-72
2022/05/30 09:13:25;;;;;;;26.10;9.60;;;;;;;38.54;42.68;101209.09;5077739;28;20463;-70
2022/05/30 09:16:04;;;;;;;13.93;7.30;;;;;;;38.63;42.20;101207.28;5062147;28;20457;-72
2022/05/30 09:18:36;;;;;;;22.27;8.77;;;;;;;38.55;42.75;101210.72;5076375;28;20457;-72
2022/05/30 09:21:02;;;;;;;14.30;9.13;;;;;;;38.64;42.28;101200.75;5071944;28;20442;-71
2022/05/30 09:23:28;;;;;;;24.47;10.77;;;;;;;38.35;42.70;101214.63;5073909;28;20433;-70
2022/05/30 09:25:57;;;;;;;17.63;10.00;;;;;;;38.37;42.73;101209.72;5051122;28;20422;-69
2022/05/30 09:28:35;;;;;;;20.53;10.80;;;;;;;38.43;42.41;101221.25;5060013;28;20554;-70
2022/05/30 09:31:15;;;;;;;24.40;10.73;;;;;;;38.62;42.61;101219.25;5057274;28;20450;-70
2022/05/30 09:33:46;;;;;;;17.00;8.60;;;;;;;38.29;42.75;101217.72;5058715;28;20472;-71
2022/05/30 09:36:19;;;;;;;15.93;8.53;;;;;;;38.21;42.71;101212.97;5059110;28;20423;-72
2022/05/30 09:38:55;;;;;;;26.40;9.90;;;;;;;38.16;43.50;101209.25;5076669;28;20804;-71
2022/05/30 09:41:46;;;;;;;24.43;11.70;;;;;;;38.54;42.55;101206.38;5059623;28;20414;-71
2022/05/30 09:44:19;;;;;;;32.67;12.33;;;;;;;38.75;41.73;101211.44;5062129;28;20410;-72
2022/05/30 09:47:01;;;;;;;28.50;12.27;;;;;;;38.41;42.42;101205.28;5060502;28;20431;-70
2022/05/30 09:49:42;;;;;;;24.13;10.10;;;;;;;38.52;42.49;101203.19;5059493;28;20525;-70
2022/05/30 09:52:37;;;;;;;17.33;11.63;;;;;;;38.67;42.08;101205.59;5059746;28;20458;-70
2022/05/30 09:55:24;;;;;;;20.73;11.67;;;;;;;38.61;41.77;101198.66;5047202;28;20506;-70
2022/05/30 09:57:52;;;;;;;17.43;9.67;;;;;;;38.68;41.79;101196.34;5047203;28;20538;-70
2022/05/30 10:00:31;;;;;;;22.37;11.33;;;;;;;38.86;41.90;101208.19;5032050;28;20431;-71
2022/05/30 10:03:03;;;;;;;20.67;10.70;;;;;;;38.81;41.06;101202.06;5047494;28;20569;-70
2022/05/30 10:05:33;;;;;;;27.33;10.57;;;;;;;39.00;41.14;101205.44;5033786;28;20420;-71
2022/05/30 10:08:02;;;;;;;25.70;11.37;;;;;;;39.07;41.38;101203.09;5067750;28;20419;-72
2022/05/30 10:10:37;;;;;;;17.47;9.23;;;;;;;38.79;41.23;101210.50;5051389;28;20438;-72
2022/05/30 10:13:06;;;;;;;28.90;12.00;;;;;;;38.99;40.86;101203.84;5050317;28;20437;-72
2022/05/30 10:15:36;;;;;;;24.43;9.60;;;;;;;39.09;40.54;101197.38;5050492;28;20422;-72
2022/05/30 10:18:17;;;;;;;19.20;9.93;;;;;;;39.11;40.80;101189.75;5050491;28;20457;-72
2022/05/30 10:21:22;;;;;;;15.57;9.37;;;;;;;39.03;40.57;101179.59;5051817;28;20769;-72
2022/05/30 10:30:40;;;;;;;22.07;9.87;;;;;;;38.65;41.77;101167.09;5043139;28;20421;-71
2022/05/30 10:33:25;;;;;;;26.90;11.40;;;;;;;38.72;41.39;101171.34;5050629;28;20469;-72
2022/05/30 10:36:26;;;;;;;29.17;11.80;;;;;;;38.92;41.42;101168.22;5067027;28;20421;-72
2022/05/30 10:39:11;;;;;;;18.37;9.50;;;;;;;38.92;41.53;101165.50;5067255;28;20432;-72
2022/05/30 10:42:02;;;;;;;21.73;11.27;;;;;;;39.07;41.03;101178.69;5050367;28;20904;-70
2022/05/30 10:44:38;;;;;;;18.97;10.30;;;;;;;38.84;41.37;101177.03;5066972;28;20996;-72
2022/05/30 10:47:21;;;;;;;15.97;9.90;;;;;;;39.06;41.07;101173.59;5066674;28;20833;-72
2022/05/30 10:50:01;;;;;;;17.07;7.73;;;;;;;39.03;40.82;101164.13;5066942;28;20422;-72
2022/05/30 10:52:47;;;;;;;16.23;9.60;;;;;;;39.18;40.90;101166.53;5050281;28;20445;-70
2022/05/30 10:55:19;;;;;;;17.97;8.27;;;;;;;38.70;42.02;101169.72;5049864;28;20454;-71
2022/05/30 10:58:08;;;;;;;18.73;10.87;;;;;;;39.04;40.96;101163.03;5050178;28;20807;-72
2022/05/30 11:00:51;;;;;;;13.73;8.47;;;;;;;39.17;40.66;101161.41;5066802;28;20465;-71
2022/05/30 11:03:29;;;;;;;17.30;8.57;;;;;;;39.21;40.55;101156.97;5050341;28;20422;-72
2022/05/30 11:06:01;;;;;;;14.33;8.00;;;;;;;39.35;40.68;101156.91;5051523;28;20445;-71
2022/05/30 11:08:27;;;;;;;22.37;9.37;;;;;;;39.31;40.33;101158.63;5066731;28;20430;-70
2022/05/30 11:11:11;;;;;;;14.03;7.80;;;;;;;39.38;40.29;101162.50;5051351;28;20495;-70
2022/05/30 11:14:04;;;;;;;21.90;12.40;;;;;;;39.39;40.64;101163.31;5049965;28;20445;-71
2022/05/30 11:16:45;;;;;;;19.97;10.80;;;;;;;39.37;40.58;101155.50;5066374;28;20411;-71
2022/05/30 11:19:24;;;;;;;16.50;9.00;;;;;;;39.45;40.77;101153.94;5066604;28;20433;-72
2022/05/30 11:22:05;;;;;;;24.10;9.50;;;;;;;39.48;40.72;101164.19;5055628;28;20422;-72
2022/05/30 11:24:34;;;;;;;16.57;9.40;;;;;;;39.45;40.66;101162.88;5069756;28;20457;-72
2022/05/30 11:27:06;;;;;;;20.80;9.13;;;;;;;39.39;40.58;101161.41;5090156;28;20849;-72
2022/05/30 11:29:49;;;;;;;19.67;9.67;;;;;;;39.35;41.09;101159.59;5083241;28;20989;-73
2022/05/30 11:32:49;;;;;;;24.53;10.87;;;;;;;39.53;40.83;101153.19;5090376;28;20472;-73
2022/05/30 11:35:32;;;;;;;15.80;10.07;;;;;;;39.58;40.51;101158.47;5090117;28;20506;-74
2022/05/30 11:38:07;;;;;;;20.60;9.13;;;;;;;39.67;40.55;101153.16;5054174;28;20418;-72
2022/05/30 11:40:47;;;;;;;31.73;11.77;;;;;;;39.51;40.48;101158.13;5064838;28;20417;-72
2022/05/30 11:44:03;;;;;;;16.50;11.43;;;;;;;39.43;40.86;101142.59;5090033;28;20920;-72
2022/05/30 11:47:06;;;;;;;18.80;8.00;;;;;;;39.63;40.52;101131.22;5030324;28;20938;-73